createdAt,value
2022-11-08T00:02:05.327Z,7.78
2022-11-08T00:05:25.945Z,7.72
2022-11-08T00:08:46.386Z,7.73
2022-11-08T00:12:06.832Z,7.84
2022-11-08T00:15:10.418Z,7.78
2022-11-08T00:18:14.387Z,7.77
2022-11-08T00:21:16.963Z,7.76
2022-11-08T00:24:19.559Z,7.70
2022-11-08T00:27:23.643Z,7.57
2022-11-08T00:30:26.177Z,7.59
2022-11-08T00:33:30.113Z,7.60
2022-11-08T00:36:32.736Z,7.64
2022-11-08T00:39:35.663Z,7.72
2022-11-08T00:42:38.350Z,7.75
2022-11-08T00:45:41.029Z,7.82
2022-11-08T00:48:45.071Z,7.83
2022-11-08T00:51:47.708Z,7.87
2022-11-08T00:54:50.299Z,7.80
2022-11-08T00:57:59.768Z,7.67
2022-11-08T01:01:10.428Z,7.66
2022-11-08T01:04:17.187Z,7.55
2022-11-08T01:07:19.967Z,7.52
2022-11-08T01:10:22.550Z,7.42
2022-11-08T01:13:25.103Z,7.32
2022-11-08T01:16:29.338Z,7.29
2022-11-08T01:19:33.530Z,7.33
2022-11-08T01:22:36.094Z,7.32
2022-11-08T01:25:38.674Z,7.32
2022-11-08T01:28:41.604Z,7.24
2022-11-08T01:31:44.128Z,7.20
2022-11-08T01:34:48.155Z,7.11
2022-11-08T01:37:52.092Z,7.12
2022-11-08T01:40:54.973Z,7.20
2022-11-08T01:43:58.082Z,7.28
2022-11-08T01:47:00.730Z,7.32
2022-11-08T01:50:07.330Z,7.38
2022-11-08T01:53:09.944Z,7.33
2022-11-08T01:56:13.974Z,7.28
2022-11-08T01:59:17.540Z,7.20
2022-11-08T02:02:20.713Z,7.12
2022-11-08T02:05:27.931Z,7.11
2022-11-08T02:08:34.377Z,7.07
2022-11-08T02:11:37.272Z,7.05
2022-11-08T02:14:39.905Z,7.02
2022-11-08T02:17:42.541Z,6.97
2022-11-08T02:20:52.289Z,7.04
2022-11-08T02:23:57.682Z,7.01
2022-11-08T02:27:00.715Z,6.98
2022-11-08T02:30:03.339Z,6.88
2022-11-08T02:33:15.589Z,6.79
2022-11-08T02:36:20.725Z,6.71
2022-11-08T02:39:24.885Z,6.74
2022-11-08T02:42:27.534Z,6.70
2022-11-08T02:45:30.139Z,6.70
2022-11-08T02:48:32.718Z,6.70
2022-11-08T02:51:35.295Z,6.61
2022-11-08T02:54:39.253Z,6.53
2022-11-08T02:57:41.876Z,6.53
2022-11-08T03:00:44.497Z,6.49
2022-11-08T03:03:47.059Z,6.48
2022-11-08T03:06:49.635Z,6.48
2022-11-08T03:09:53.519Z,6.52
2022-11-08T03:12:56.779Z,6.51
2022-11-08T03:15:59.471Z,6.43
2022-11-08T03:19:02.204Z,6.45
2022-11-08T03:22:04.751Z,6.40
2022-11-08T03:25:09.462Z,6.43
2022-11-08T03:28:12.009Z,6.37
2022-11-08T03:31:14.578Z,6.29
2022-11-08T03:34:17.268Z,6.33
2022-11-08T03:37:20.109Z,6.29
2022-11-08T03:40:24.982Z,6.31
2022-11-08T03:43:27.712Z,6.40
2022-11-08T03:46:30.269Z,6.33
2022-11-08T03:49:32.820Z,6.32
2022-11-08T03:52:41.308Z,6.33
2022-11-08T03:55:45.198Z,6.32
2022-11-08T03:58:47.973Z,6.36
2022-11-08T04:01:50.778Z,6.32
2022-11-08T04:04:53.505Z,6.25
2022-11-08T04:07:56.071Z,6.24
2022-11-08T04:11:21.408Z,6.24
2022-11-08T04:14:41.464Z,6.18
2022-11-08T04:18:02.723Z,6.29
2022-11-08T04:21:21.853Z,6.35
2022-11-08T04:24:24.834Z,6.42
2022-11-08T04:27:28.800Z,6.27
2022-11-08T04:30:31.649Z,6.29
2022-11-08T04:33:34.381Z,6.33
2022-11-08T04:36:37.548Z,6.44
2022-11-08T04:39:40.128Z,6.38
2022-11-08T04:42:46.167Z,6.25
2022-11-08T04:45:48.836Z,6.18
2022-11-08T04:48:52.684Z,6.04
2022-11-08T04:51:55.281Z,6.06
2022-11-08T04:54:57.933Z,6.14
2022-11-08T04:58:01.863Z,6.23
2022-11-08T05:01:06.092Z,6.25
2022-11-08T05:04:15.133Z,6.34
2022-11-08T05:07:17.677Z,6.29
2022-11-08T05:10:20.392Z,6.24
2022-11-08T05:13:24.425Z,6.18
2022-11-08T05:16:28.341Z,6.04
2022-11-08T05:19:48.753Z,6.07
2022-11-08T05:23:08.876Z,6.10
2022-11-08T05:26:11.630Z,6.10
2022-11-08T05:29:16.731Z,6.05
2022-11-08T05:32:19.452Z,6.07
2022-11-08T05:35:23.005Z,6.02
2022-11-08T05:38:25.635Z,6.01
2022-11-08T05:41:28.392Z,5.89
2022-11-08T05:44:32.427Z,5.88
2022-11-08T05:47:35.129Z,5.91
2022-11-08T05:50:37.782Z,5.98
2022-11-08T05:53:40.870Z,6.01
2022-11-08T05:56:43.475Z,6.13
2022-11-08T05:59:47.368Z,6.14
2022-11-08T06:02:50.006Z,6.09
2022-11-08T06:06:13.214Z,6.11
2022-11-08T06:09:15.772Z,6.04
2022-11-08T06:12:18.873Z,6.01
2022-11-08T06:15:22.784Z,6.04
2022-11-08T06:18:25.415Z,6.05
2022-11-08T06:21:28.613Z,6.03
2022-11-08T06:24:31.371Z,6.05
2022-11-08T06:27:34.032Z,6.03
2022-11-08T06:30:38.109Z,6.05
2022-11-08T06:33:40.868Z,6.04
2022-11-08T06:36:43.464Z,6.04
2022-11-08T06:39:46.115Z,6.01
2022-11-08T06:42:48.904Z,6.04
2022-11-08T06:45:53.997Z,6.15
2022-11-08T06:48:56.752Z,6.18
2022-11-08T06:51:59.400Z,6.22
2022-11-08T06:55:02.081Z,6.29
2022-11-08T06:58:05.921Z,6.36
2022-11-08T07:01:11.526Z,6.44
2022-11-08T07:04:14.169Z,6.56
2022-11-08T07:07:16.815Z,6.65
2022-11-08T07:10:19.741Z,6.77
2022-11-08T07:13:22.526Z,6.94
2022-11-08T07:16:26.746Z,7.11
2022-11-08T07:19:29.483Z,7.26
2022-11-08T07:22:32.217Z,7.47
2022-11-08T07:25:35.572Z,7.65
2022-11-08T07:28:38.186Z,7.78
2022-11-08T07:31:42.188Z,7.85
2022-11-08T07:34:45.957Z,7.79
2022-11-08T07:37:48.412Z,7.64
2022-11-08T07:40:51.521Z,7.47
2022-11-08T07:43:54.244Z,7.43
2022-11-08T07:46:58.212Z,7.41
2022-11-08T07:50:00.843Z,7.41
2022-11-08T07:53:03.466Z,7.39
2022-11-08T07:56:06.412Z,7.39
2022-11-08T07:59:09.143Z,7.56
2022-11-08T08:02:13.634Z,7.65
2022-11-08T08:05:16.328Z,7.93
2022-11-08T08:08:19.129Z,8.17
2022-11-08T08:11:21.875Z,8.48
2022-11-08T08:14:24.547Z,8.79
2022-11-08T08:17:28.779Z,9.07
2022-11-08T08:20:31.855Z,9.20
2022-11-08T08:23:34.684Z,9.50
2022-11-08T08:26:37.305Z,10.13
2022-11-08T08:29:39.846Z,10.26
2022-11-08T08:32:43.810Z,10.64
2022-11-08T08:35:46.417Z,10.80
2022-11-08T08:38:49.033Z,11.03
2022-11-08T08:41:51.647Z,11.18
2022-11-08T08:44:54.501Z,11.32
2022-11-08T08:47:59.087Z,11.62
2022-11-08T08:51:01.667Z,11.86
2022-11-08T08:54:04.297Z,12.10
2022-11-08T08:57:06.842Z,12.14
2022-11-08T09:03:35.793Z,12.31
2022-11-08T09:06:38.376Z,12.44
2022-11-08T09:09:41.081Z,12.43
2022-11-08T09:12:43.709Z,12.37
2022-11-08T09:15:46.324Z,12.38
2022-11-08T09:18:50.341Z,12.48
2022-11-08T09:21:53.115Z,12.69
2022-11-08T09:24:55.740Z,12.71
2022-11-08T09:28:00.372Z,12.53
2022-11-08T09:31:04.624Z,12.48
2022-11-08T09:34:08.526Z,12.32
2022-11-08T09:37:11.114Z,12.37
2022-11-08T09:43:36.427Z,12.61
2022-11-08T09:46:42.729Z,12.77
2022-11-08T09:49:48.649Z,13.13
2022-11-08T09:52:55.380Z,13.64
2022-11-08T09:56:00.217Z,13.84
2022-11-08T09:59:11.427Z,14.38
2022-11-08T10:02:18.721Z,14.93
2022-11-08T10:05:22.981Z,15.01
2022-11-08T10:08:31.261Z,15.12
2022-11-08T10:11:54.590Z,15.26
2022-11-08T10:15:10.092Z,15.60
2022-11-08T10:18:39.966Z,15.88
2022-11-08T10:21:54.800Z,15.97
2022-11-08T10:25:01.628Z,15.96
2022-11-08T10:28:04.716Z,15.85
2022-11-08T10:31:07.630Z,15.59
2022-11-08T10:34:15.018Z,15.28
2022-11-08T10:37:19.071Z,14.93
2022-11-08T10:40:29.985Z,15.20
2022-11-08T10:43:35.942Z,15.44
2022-11-08T10:46:41.816Z,15.53
2022-11-08T10:49:44.940Z,15.61
2022-11-08T10:52:54.827Z,15.65
2022-11-08T10:56:00.659Z,16.04
2022-11-08T10:59:03.192Z,16.73
2022-11-08T11:02:19.307Z,17.29
2022-11-08T11:05:25.862Z,17.45
2022-11-08T11:08:30.168Z,17.87
2022-11-08T11:11:37.519Z,18.19
2022-11-08T11:14:40.631Z,18.32
2022-11-08T11:17:45.796Z,18.01
2022-11-08T11:21:02.292Z,17.99
2022-11-08T11:24:15.341Z,18.46
2022-11-08T11:27:24.044Z,18.61
2022-11-08T11:30:33.537Z,18.49
2022-11-08T11:33:44.556Z,18.56
2022-11-08T11:36:50.947Z,18.73
2022-11-08T11:40:02.344Z,18.66
2022-11-08T11:43:10.260Z,18.96
2022-11-08T11:46:17.591Z,19.73
2022-11-08T11:49:21.690Z,20.35
2022-11-08T11:52:24.368Z,20.56
2022-11-08T11:55:42.010Z,20.91
2022-11-08T11:58:57.696Z,21.09
2022-11-08T12:02:14.495Z,21.24
2022-11-08T12:05:28.460Z,21.41
2022-11-08T12:08:37.037Z,21.82
2022-11-08T12:11:54.345Z,22.04
2022-11-08T12:15:01.999Z,21.94
2022-11-08T12:18:42.176Z,21.68
2022-11-08T12:21:52.276Z,21.39
2022-11-08T12:24:59.575Z,21.42
2022-11-08T12:28:13.517Z,21.75
2022-11-08T12:31:25.626Z,21.94
2022-11-08T12:34:32.273Z,22.13
2022-11-08T12:37:45.830Z,22.56
2022-11-08T12:40:52.574Z,22.80
2022-11-08T12:44:21.252Z,24.51
2022-11-08T12:47:32.290Z,29.84
2022-11-08T12:50:39.466Z,31.74
2022-11-08T12:54:04.884Z,31.54
2022-11-08T12:57:11.993Z,32.34
2022-11-08T13:00:18.787Z,31.91
2022-11-08T13:03:37.752Z,30.09
2022-11-08T13:06:44.695Z,25.32
2022-11-08T13:09:52.894Z,23.14
2022-11-08T13:13:06.728Z,22.37
2022-11-08T13:16:15.766Z,23.20
2022-11-08T13:19:29.036Z,24.90
2022-11-08T13:22:45.200Z,25.39
2022-11-08T13:25:48.309Z,24.52
2022-11-08T13:28:51.435Z,24.07
2022-11-08T13:31:55.840Z,23.39
2022-11-08T13:35:04.890Z,22.43
2022-11-08T13:38:19.711Z,21.59
2022-11-08T13:41:24.593Z,21.23
2022-11-08T13:44:57.079Z,20.50
2022-11-08T13:48:13.537Z,20.13
2022-11-08T13:51:29.862Z,19.74
2022-11-08T13:54:49.425Z,19.29
2022-11-08T13:57:58.319Z,19.07
2022-11-08T14:01:01.796Z,18.88
2022-11-08T14:04:24.108Z,18.75
2022-11-08T14:07:31.091Z,18.68
2022-11-08T14:10:39.866Z,18.56
2022-11-08T14:14:07.217Z,18.55
2022-11-08T14:17:28.412Z,18.53
2022-11-08T14:20:35.804Z,18.52
2022-11-08T14:23:40.858Z,18.49
2022-11-08T14:26:46.376Z,18.56
2022-11-08T14:30:00.102Z,18.49
2022-11-08T14:33:07.979Z,18.44
2022-11-08T14:36:16.639Z,18.27
2022-11-08T14:39:19.794Z,18.06
2022-11-08T14:42:24.318Z,17.89
2022-11-08T14:45:29.869Z,17.80
2022-11-08T14:48:32.536Z,17.76
2022-11-08T14:51:36.608Z,17.61
2022-11-08T14:54:40.554Z,17.55
2022-11-08T14:57:44.105Z,17.50
2022-11-08T15:00:47.489Z,17.39
2022-11-08T15:03:52.828Z,17.27
2022-11-08T15:06:59.053Z,17.01
2022-11-08T15:10:08.441Z,16.86
2022-11-08T15:13:11.437Z,16.77
2022-11-08T15:16:15.295Z,16.48
2022-11-08T15:19:29.534Z,16.36
2022-11-08T15:22:34.343Z,16.24
2022-11-08T15:25:38.199Z,16.04
2022-11-08T15:28:40.754Z,15.81
2022-11-08T15:31:44.946Z,15.55
2022-11-08T15:34:48.315Z,15.24
2022-11-08T15:37:52.842Z,14.95
2022-11-08T15:40:57.844Z,14.69
2022-11-08T15:44:19.309Z,14.60
2022-11-08T15:47:40.655Z,14.42
2022-11-08T15:50:43.238Z,14.23
2022-11-08T15:53:47.146Z,14.12
2022-11-08T15:56:51.015Z,13.94
2022-11-08T15:59:53.602Z,13.73
2022-11-08T16:02:56.235Z,13.52
2022-11-08T16:05:59.048Z,13.49
2022-11-08T16:09:03.064Z,13.47
2022-11-08T16:12:06.225Z,13.39
2022-11-08T16:15:12.640Z,13.15
2022-11-08T16:18:16.642Z,13.09
2022-11-08T16:21:19.500Z,13.06
2022-11-08T16:24:23.478Z,12.95
2022-11-08T16:27:26.141Z,12.90
2022-11-08T16:30:28.748Z,12.87
2022-11-08T16:33:32.933Z,12.90
2022-11-08T16:36:35.536Z,12.86
2022-11-08T16:39:39.593Z,12.85
2022-11-08T16:42:42.236Z,12.81
2022-11-08T16:46:04.297Z,12.85
2022-11-08T16:49:08.355Z,12.94
2022-11-08T16:52:11.629Z,13.08
2022-11-08T16:55:17.919Z,13.06
2022-11-08T16:58:20.822Z,13.02
2022-11-08T17:01:27.456Z,12.99
2022-11-08T17:04:30.266Z,13.05
2022-11-08T17:07:32.968Z,13.19
2022-11-08T17:10:36.966Z,13.31
2022-11-08T17:13:40.678Z,13.58
2022-11-08T17:16:43.459Z,13.80
2022-11-08T17:19:46.215Z,14.14
2022-11-08T17:22:49.673Z,14.27
2022-11-08T17:25:53.706Z,14.22
2022-11-08T17:28:56.986Z,14.13
2022-11-08T17:31:59.641Z,13.97
2022-11-08T17:35:02.478Z,13.92
2022-11-08T17:38:05.099Z,13.98
2022-11-08T17:41:10.886Z,13.94
2022-11-08T17:44:14.326Z,14.03
2022-11-08T17:47:17.175Z,14.08
2022-11-08T17:50:19.902Z,14.04
2022-11-08T17:53:22.593Z,13.97
2022-11-08T17:56:26.583Z,13.86
2022-11-08T17:59:29.224Z,13.64
2022-11-08T18:02:34.437Z,13.54
2022-11-08T18:05:37.284Z,13.26
2022-11-08T18:08:40.400Z,13.05
2022-11-08T18:11:47.878Z,12.97
2022-11-08T18:14:50.472Z,12.98
2022-11-08T18:17:53.071Z,12.78
2022-11-08T18:20:56.387Z,12.55
2022-11-08T18:23:59.920Z,12.51
2022-11-08T18:27:03.836Z,12.53
2022-11-08T18:30:07.558Z,12.61
2022-11-08T18:33:10.714Z,12.64
2022-11-08T18:36:16.755Z,12.67
2022-11-08T18:39:20.008Z,12.53
2022-11-08T18:42:24.171Z,12.53
2022-11-08T18:45:26.779Z,12.30
2022-11-08T18:48:29.477Z,12.14
2022-11-08T18:51:32.848Z,12.06
2022-11-08T18:54:35.677Z,11.87
2022-11-08T18:57:39.872Z,11.69
2022-11-08T19:00:42.787Z,11.59
2022-11-08T19:03:45.723Z,11.59
2022-11-08T19:06:54.160Z,11.65
2022-11-08T19:09:57.332Z,11.69
2022-11-08T19:13:01.457Z,11.77
2022-11-08T19:16:05.911Z,11.87
2022-11-08T19:19:08.570Z,11.85
2022-11-08T19:22:12.135Z,11.87
2022-11-08T19:25:14.808Z,11.84
2022-11-08T19:28:18.766Z,11.83
2022-11-08T19:31:22.410Z,11.87
2022-11-08T19:34:24.866Z,11.95
2022-11-08T19:37:27.507Z,11.98
2022-11-08T19:40:32.284Z,12.05
2022-11-08T19:43:37.286Z,12.08
2022-11-08T19:46:40.740Z,12.13
2022-11-08T19:49:43.317Z,12.18
2022-11-08T19:52:45.986Z,12.16
2022-11-08T19:55:48.624Z,12.12
2022-11-08T19:58:53.014Z,12.00
2022-11-08T20:01:55.756Z,11.89
2022-11-08T20:04:58.848Z,11.90
2022-11-08T20:08:05.918Z,11.92
2022-11-08T20:11:12.537Z,11.86
2022-11-08T20:14:16.518Z,11.90
2022-11-08T20:17:19.164Z,11.94
2022-11-08T20:20:22.048Z,11.92
2022-11-08T20:23:25.693Z,11.93
2022-11-08T20:26:28.273Z,11.89
2022-11-08T20:29:32.649Z,11.88
2022-11-08T20:32:35.277Z,11.86
2022-11-08T20:35:38.749Z,11.86
2022-11-08T20:38:42.090Z,11.85
2022-11-08T20:41:44.775Z,11.87
2022-11-08T20:44:48.987Z,11.81
2022-11-08T20:47:51.556Z,11.80
2022-11-08T20:50:57.955Z,11.78
2022-11-08T20:54:01.444Z,11.76
2022-11-08T20:57:04.192Z,11.80
2022-11-08T21:00:13.646Z,11.98
2022-11-08T21:03:19.107Z,11.92
2022-11-08T21:06:23.094Z,11.83
2022-11-08T21:09:37.521Z,11.86
2022-11-08T21:12:45.067Z,11.84
2022-11-08T21:15:50.326Z,11.77
2022-11-08T21:18:52.902Z,11.77
2022-11-08T21:22:14.830Z,11.78
2022-11-08T21:25:17.591Z,11.81
2022-11-08T21:28:20.444Z,11.77
2022-11-08T21:31:24.599Z,11.78
2022-11-08T21:34:32.183Z,11.86
2022-11-08T21:37:35.213Z,11.92
2022-11-08T21:40:39.106Z,11.86
2022-11-08T21:43:44.061Z,11.75
2022-11-08T21:46:48.042Z,11.68
2022-11-08T21:49:50.654Z,11.55
2022-11-08T21:52:53.534Z,11.52
2022-11-08T21:55:58.162Z,11.47
2022-11-08T21:59:01.259Z,11.40
2022-11-08T22:02:05.552Z,11.35
2022-11-08T22:05:09.649Z,11.28
2022-11-08T22:08:12.322Z,11.19
2022-11-08T22:11:15.085Z,11.15
2022-11-08T22:14:17.824Z,11.07
2022-11-08T22:17:22.559Z,11.04
2022-11-08T22:20:26.041Z,11.00
2022-11-08T22:23:28.740Z,10.95
2022-11-08T22:26:31.388Z,10.82
2022-11-08T22:29:34.317Z,10.68
2022-11-08T22:32:38.308Z,10.59
2022-11-08T22:35:41.088Z,10.59
2022-11-08T22:38:43.790Z,10.54
2022-11-08T22:41:48.523Z,10.59
2022-11-08T22:44:51.472Z,10.71
2022-11-08T22:47:55.539Z,10.83
2022-11-08T22:50:58.513Z,10.97
2022-11-08T22:54:01.754Z,10.95
2022-11-08T22:57:04.959Z,11.04
2022-11-08T23:00:10.022Z,11.08
2022-11-08T23:03:14.376Z,11.03
2022-11-08T23:06:17.090Z,11.02
2022-11-08T23:09:20.021Z,11.06
2022-11-08T23:12:40.297Z,11.01
2022-11-08T23:16:00.341Z,11.02
2022-11-08T23:19:23.960Z,11.11
2022-11-08T23:22:44.091Z,11.17
2022-11-08T23:25:46.911Z,11.24
2022-11-08T23:29:07.102Z,11.24
2022-11-08T23:32:09.680Z,11.26
2022-11-08T23:35:14.419Z,11.24
2022-11-08T23:38:20.165Z,11.29
2022-11-08T23:41:43.088Z,11.34
2022-11-08T23:44:45.967Z,11.46
2022-11-08T23:47:48.629Z,11.49
2022-11-08T23:50:54.501Z,11.66
2022-11-08T23:53:57.351Z,11.64
2022-11-08T23:56:59.955Z,11.63
